Terminal Aerodrome Forecast
Issued by NWS

Current Version | Previous Version | Text Only | Print | Product List | Glossary On
Versions: 1 2 3 4 5 6 7 8 9 10 11 12
000
FTUS46 KSTO 281100
TAFRDD
TAF
KRDD 281120Z 2812/2912 VRB04KT P6SM FEW200
     FM282200 18011KT P6SM BKN200
     FM290400 VRB03KT P6SM BKN150=

USA.gov is the U.S. government's official web portal to all federal, state and local government web resources and services.